Portada
METAR-TAF:

METAR-TAF

Aeropuertos :

Joplin Regional Airport

Joplin, Misuri, Estados Unidos

latitud: 37-09-22N, longitud: 094-30-02W, altitud: 299 m

Observación

El informe se hizo hace 1 hora y 16 minutos, a las 05:53 UTC
Viento 6 kt del sureste
Temperatura 24°C
Humedad 78%
Presión 1014 hPa
Visibilidad: 16.1 km
Cielo despejado

METAR: KJLN 070553Z AUTO 13006KT 10SM CLR 24/20 A2993 RMK AO2 SLP122 T02440200 10322 20244 403440228 50006

Hora: 02:09 (07:09 UTC)

Pronóstico

El informe se hizo hace 1 hora y 49 minutos, a las 05:20 UTC
Pronóstico válido del 07 a las 06 UTC al 08 a las 06 UTC
Viento 7 kt del sureste
Visibilidad: 10 km
Escasas nubes a una altura de 25000 ft

TAF: KJLN 070520Z 0706/0806 14007KT P6SM FEW250

Observaciones y pronósticos meteorológicos de más de 4000 aeropuertos (mensajes METAR y TAF).

Los puntos amarillos y rojos representan las estaciones disponibles.

Ponga el ratón en el punto deseado para ver el nombre de la estación.

Haga clic para ver las observaciones y los pronósticos meteorológicos.

Para cambiar el mapa : haga clic en los botones verdes con una cruz de color negro para hacer un zoom, en el botón verde con un guión para alejar o en las flechas verdes para mapas adyacentes.


METAR-TAF: